createdAt,value
2017-08-24T00:00:45.938Z,21.37
2017-08-24T00:03:12.582Z,20.30
2017-08-24T00:05:39.221Z,21.33
2017-08-24T00:08:05.861Z,21.83
2017-08-24T00:10:32.482Z,22.37
2017-08-24T00:12:59.128Z,21.60
2017-08-24T00:15:25.767Z,20.87
2017-08-24T00:17:52.396Z,25.13
2017-08-24T00:20:19.023Z,23.10
2017-08-24T00:22:45.642Z,23.70
2017-08-24T00:25:12.266Z,24.17
2017-08-24T00:27:38.894Z,21.97
2017-08-24T00:30:05.565Z,21.43
2017-08-24T00:32:32.168Z,21.60
2017-08-24T00:34:58.811Z,23.93
2017-08-24T00:37:25.450Z,23.27
2017-08-24T00:39:52.056Z,22.60
2017-08-24T00:42:19.077Z,21.47
2017-08-24T00:44:45.746Z,23.77
2017-08-24T00:47:12.354Z,21.67
2017-08-24T00:49:38.980Z,23.20
2017-08-24T00:52:05.624Z,23.70
2017-08-24T00:54:32.255Z,22.87
2017-08-24T00:56:58.906Z,24.50
2017-08-24T00:59:25.531Z,23.67
2017-08-24T01:01:52.181Z,22.87
2017-08-24T01:04:18.816Z,23.17
2017-08-24T01:06:45.435Z,24.60
2017-08-24T01:09:12.074Z,25.50
2017-08-24T01:11:38.705Z,23.30
2017-08-24T01:14:05.355Z,24.97
2017-08-24T01:16:31.987Z,24.53
2017-08-24T01:18:58.637Z,23.47
2017-08-24T01:21:25.266Z,24.13
2017-08-24T01:23:51.873Z,24.47
2017-08-24T01:26:18.530Z,22.97
2017-08-24T01:28:45.146Z,21.17
2017-08-24T01:31:11.766Z,21.20
2017-08-24T01:33:38.427Z,23.47
2017-08-24T01:36:05.051Z,24.97
2017-08-24T01:38:31.682Z,23.00
2017-08-24T01:40:58.327Z,21.90
2017-08-24T01:43:24.952Z,21.97
2017-08-24T01:45:51.569Z,20.90
2017-08-24T01:48:18.214Z,21.50
2017-08-24T01:50:44.866Z,22.07
2017-08-24T01:53:11.485Z,19.53
2017-08-24T01:55:38.317Z,20.73
2017-08-24T01:58:05.126Z,14.23
2017-08-24T02:00:31.762Z,7.77
2017-08-24T02:02:58.392Z,7.50
2017-08-24T02:05:25.040Z,7.27
2017-08-24T02:07:51.671Z,5.40
2017-08-24T02:10:18.300Z,6.57
2017-08-24T02:12:44.924Z,5.90
2017-08-24T02:15:11.579Z,6.17
2017-08-24T02:17:38.199Z,5.30
2017-08-24T02:20:04.812Z,5.93
2017-08-24T02:22:31.455Z,5.07
2017-08-24T02:24:58.080Z,6.80
2017-08-24T02:27:24.738Z,6.40
2017-08-24T02:29:51.361Z,5.73
2017-08-24T02:32:17.967Z,6.10
2017-08-24T02:34:44.617Z,5.70
2017-08-24T02:37:11.244Z,7.80
2017-08-24T02:39:37.900Z,6.70
2017-08-24T02:42:04.514Z,7.30
2017-08-24T02:44:31.177Z,7.70
2017-08-24T02:46:57.788Z,9.00
2017-08-24T02:49:24.408Z,8.10
2017-08-24T02:51:51.049Z,7.63
2017-08-24T02:54:17.679Z,8.77
2017-08-24T02:56:44.307Z,8.20
2017-08-24T02:59:10.966Z,7.80
2017-08-24T03:01:37.595Z,6.70
2017-08-24T03:04:04.230Z,8.30
2017-08-24T03:06:30.859Z,10.90
2017-08-24T03:08:57.490Z,8.80
2017-08-24T03:11:24.113Z,8.17
2017-08-24T03:13:50.770Z,9.13
2017-08-24T03:16:17.370Z,8.83
2017-08-24T03:18:43.990Z,8.43
2017-08-24T03:21:10.639Z,9.03
2017-08-24T03:23:37.248Z,8.60
2017-08-24T03:26:03.881Z,8.03
2017-08-24T03:28:30.511Z,9.57
2017-08-24T03:30:57.158Z,9.80
2017-08-24T03:33:23.791Z,12.63
2017-08-24T03:35:50.418Z,10.60
2017-08-24T03:38:17.058Z,10.40
2017-08-24T03:40:43.689Z,10.20
2017-08-24T03:43:10.355Z,9.10
2017-08-24T03:45:36.990Z,10.10
2017-08-24T03:48:03.607Z,10.27
2017-08-24T03:50:30.247Z,10.47
2017-08-24T03:52:56.867Z,11.57
2017-08-24T03:55:23.513Z,11.10
2017-08-24T03:57:50.127Z,11.33
2017-08-24T04:00:16.759Z,11.53
2017-08-24T04:02:43.382Z,10.60
2017-08-24T04:05:10.000Z,9.33
2017-08-24T04:07:36.625Z,10.70
2017-08-24T04:10:03.257Z,9.80
2017-08-24T04:12:29.891Z,11.93
2017-08-24T04:14:56.515Z,11.67
2017-08-24T04:17:23.183Z,10.20
2017-08-24T04:19:49.793Z,10.13
2017-08-24T04:22:16.422Z,11.80
2017-08-24T04:24:43.064Z,11.60
2017-08-24T04:27:09.690Z,14.27
2017-08-24T04:29:36.317Z,10.70
2017-08-24T04:32:02.942Z,10.30
2017-08-24T04:34:29.567Z,13.03
2017-08-24T04:36:56.184Z,10.20
2017-08-24T04:39:22.846Z,10.93
2017-08-24T04:41:49.475Z,10.13
2017-08-24T04:44:16.110Z,10.07
2017-08-24T04:46:42.744Z,12.50
2017-08-24T04:49:09.388Z,10.50
2017-08-24T04:51:36.030Z,9.90
2017-08-24T04:54:02.659Z,9.43
2017-08-24T04:56:29.303Z,10.97
2017-08-24T04:58:55.913Z,9.33
2017-08-24T05:01:22.558Z,8.57
2017-08-24T05:03:49.187Z,9.77
2017-08-24T05:06:15.818Z,9.87
2017-08-24T05:08:42.437Z,8.33
2017-08-24T05:11:09.080Z,8.90
2017-08-24T05:13:35.726Z,8.77
2017-08-24T05:16:02.343Z,8.07
2017-08-24T05:18:28.975Z,9.10
2017-08-24T05:20:55.594Z,9.20
2017-08-24T05:23:22.221Z,8.70
2017-08-24T05:25:48.828Z,8.70
2017-08-24T05:28:15.470Z,10.20
2017-08-24T05:30:42.101Z,8.83
2017-08-24T05:33:08.727Z,8.53
2017-08-24T05:35:35.372Z,9.13
2017-08-24T05:38:02.002Z,9.57
2017-08-24T05:40:28.626Z,8.30
2017-08-24T05:42:55.254Z,9.27
2017-08-24T05:45:21.891Z,9.03
2017-08-24T05:47:48.517Z,8.10
2017-08-24T05:50:15.143Z,10.63
2017-08-24T05:52:41.794Z,7.43
2017-08-24T05:55:08.414Z,9.10
2017-08-24T05:57:35.050Z,9.07
2017-08-24T06:00:01.651Z,9.37
2017-08-24T06:02:28.277Z,10.90
2017-08-24T06:04:54.919Z,7.63
2017-08-24T06:07:21.543Z,8.20
2017-08-24T06:09:48.193Z,7.40
2017-08-24T06:12:14.909Z,7.93
2017-08-24T06:14:41.599Z,8.40
2017-08-24T06:17:08.236Z,8.40
2017-08-24T06:19:34.847Z,9.33
2017-08-24T06:22:01.499Z,7.20
2017-08-24T06:24:28.225Z,7.67
2017-08-24T06:26:54.843Z,9.07
2017-08-24T06:29:21.508Z,7.87
2017-08-24T06:31:48.130Z,9.43
2017-08-24T06:34:14.761Z,7.60
2017-08-24T06:36:41.406Z,8.37
2017-08-24T06:39:08.030Z,8.40
2017-08-24T06:41:34.666Z,9.80
2017-08-24T06:44:01.282Z,7.93
2017-08-24T06:46:27.963Z,7.90
2017-08-24T06:48:54.630Z,10.90
2017-08-24T06:51:21.267Z,8.80
2017-08-24T06:53:47.911Z,8.83
2017-08-24T06:56:14.550Z,8.23
2017-08-24T06:58:41.199Z,9.63
2017-08-24T07:01:07.838Z,10.90
2017-08-24T07:03:34.459Z,8.30
2017-08-24T07:06:01.091Z,9.40
2017-08-24T07:08:27.739Z,8.17
2017-08-24T07:10:54.390Z,9.83
2017-08-24T07:13:20.994Z,9.87
2017-08-24T07:15:47.638Z,9.63
2017-08-24T07:18:14.256Z,9.33
2017-08-24T07:20:40.898Z,10.00
2017-08-24T07:23:07.504Z,12.13
2017-08-24T07:25:34.156Z,10.97
2017-08-24T07:28:00.795Z,10.57
2017-08-24T07:30:27.910Z,11.80
2017-08-24T07:32:54.548Z,13.10
2017-08-24T07:35:21.181Z,12.17
2017-08-24T07:37:47.817Z,12.80
2017-08-24T07:40:14.476Z,10.93
2017-08-24T07:42:41.127Z,12.27
2017-08-24T07:45:07.821Z,12.90
2017-08-24T07:47:34.422Z,12.73
2017-08-24T07:50:01.075Z,13.37
2017-08-24T07:52:28.563Z,12.03
2017-08-24T07:54:55.775Z,14.63
2017-08-24T07:57:22.427Z,12.30
2017-08-24T07:59:49.107Z,13.10
2017-08-24T08:02:15.754Z,16.80
2017-08-24T08:04:42.445Z,11.63
2017-08-24T08:07:09.073Z,14.10
2017-08-24T08:09:35.700Z,12.97
2017-08-24T08:12:02.337Z,12.03
2017-08-24T08:14:29.006Z,14.30
2017-08-24T08:16:55.643Z,13.30
2017-08-24T08:19:22.282Z,13.17
2017-08-24T08:21:48.920Z,12.57
2017-08-24T08:24:15.586Z,14.93
2017-08-24T08:26:42.223Z,13.73
2017-08-24T08:29:08.879Z,14.37
2017-08-24T08:31:35.499Z,13.97
2017-08-24T08:34:02.127Z,13.10
2017-08-24T08:36:28.762Z,12.80
2017-08-24T08:38:55.399Z,13.20
2017-08-24T08:41:22.026Z,15.10
2017-08-24T08:43:48.655Z,13.00
2017-08-24T08:46:15.293Z,12.97
2017-08-24T08:48:41.958Z,12.73
2017-08-24T08:51:08.582Z,13.70
2017-08-24T08:53:35.216Z,15.47
2017-08-24T08:56:01.837Z,12.70
2017-08-24T08:58:28.456Z,15.20
2017-08-24T09:00:55.108Z,16.10
2017-08-24T09:03:21.721Z,14.00
2017-08-24T09:05:48.375Z,14.73
2017-08-24T09:08:14.981Z,15.17
2017-08-24T09:10:41.614Z,14.67
2017-08-24T09:13:08.284Z,14.53
2017-08-24T09:15:34.901Z,14.37
2017-08-24T09:18:01.539Z,14.13
2017-08-24T09:20:28.246Z,12.60
2017-08-24T09:22:54.878Z,15.23
2017-08-24T09:25:21.512Z,12.70
2017-08-24T09:27:48.147Z,12.67
2017-08-24T09:30:14.760Z,11.63
2017-08-24T09:32:41.383Z,12.73
2017-08-24T09:35:08.018Z,10.57
2017-08-24T09:37:34.634Z,10.50
2017-08-24T09:40:01.281Z,12.20
2017-08-24T09:42:27.923Z,10.90
2017-08-24T09:44:54.586Z,11.23
2017-08-24T09:47:21.230Z,9.80
2017-08-24T09:49:47.867Z,9.47
2017-08-24T09:52:14.491Z,9.50
2017-08-24T09:54:41.140Z,10.37
2017-08-24T09:57:07.786Z,10.40
2017-08-24T09:59:34.423Z,9.20
2017-08-24T10:02:01.051Z,8.70
2017-08-24T10:04:27.679Z,7.80
2017-08-24T10:06:54.329Z,9.80
2017-08-24T10:09:20.969Z,9.40
2017-08-24T10:11:47.637Z,8.70
2017-08-24T10:14:14.259Z,8.20
2017-08-24T10:16:40.895Z,7.40
2017-08-24T10:19:07.509Z,8.43
2017-08-24T10:21:34.172Z,10.50
2017-08-24T10:24:00.812Z,8.10
2017-08-24T10:26:27.422Z,8.70
2017-08-24T10:28:54.099Z,9.07
2017-08-24T10:31:20.698Z,6.50
2017-08-24T10:33:47.326Z,6.60
2017-08-24T10:36:13.935Z,7.60
2017-08-24T10:38:40.574Z,7.97
2017-08-24T10:41:07.194Z,8.30
2017-08-24T10:43:33.831Z,7.30
2017-08-24T10:46:00.478Z,9.60
2017-08-24T10:48:27.095Z,7.17
2017-08-24T10:50:53.727Z,8.87
2017-08-24T10:53:20.371Z,8.20
2017-08-24T10:55:47.012Z,7.97
2017-08-24T10:58:13.647Z,7.40
2017-08-24T11:00:40.259Z,7.37
2017-08-24T11:03:06.909Z,8.57
2017-08-24T11:05:33.569Z,8.30
2017-08-24T11:08:00.175Z,6.73
2017-08-24T11:10:26.799Z,7.90
2017-08-24T11:12:53.450Z,8.27
2017-08-24T11:15:20.092Z,8.43
2017-08-24T11:17:46.694Z,7.67
2017-08-24T11:20:13.314Z,7.43
2017-08-24T11:22:39.940Z,8.10
2017-08-24T11:25:06.586Z,8.47
2017-08-24T11:27:33.218Z,8.10
2017-08-24T11:29:59.823Z,8.47
2017-08-24T11:32:26.471Z,8.23
2017-08-24T11:34:53.087Z,7.10
2017-08-24T11:37:19.734Z,6.83
2017-08-24T11:39:46.344Z,8.00
2017-08-24T11:42:12.960Z,8.50
2017-08-24T11:44:39.610Z,7.00
2017-08-24T11:47:06.269Z,7.63
2017-08-24T11:49:32.890Z,7.07
2017-08-24T11:51:59.498Z,8.00
2017-08-24T11:54:26.146Z,8.93
2017-08-24T11:56:52.787Z,8.30
2017-08-24T11:59:19.389Z,8.13
2017-08-24T12:01:46.011Z,7.77
2017-08-24T12:04:12.679Z,7.03
2017-08-24T12:06:39.302Z,7.80
2017-08-24T12:09:05.950Z,7.50
2017-08-24T12:11:32.571Z,6.57
2017-08-24T12:13:59.184Z,6.07
2017-08-24T12:16:25.839Z,7.43
2017-08-24T12:18:52.473Z,6.20
2017-08-24T12:21:19.095Z,6.70
2017-08-24T12:23:45.723Z,6.73
2017-08-24T12:26:12.327Z,5.00
2017-08-24T12:28:38.959Z,5.80
2017-08-24T12:31:05.575Z,6.50
2017-08-24T12:33:32.211Z,5.83
2017-08-24T12:35:58.825Z,4.83
2017-08-24T12:38:25.449Z,6.07
2017-08-24T12:40:52.103Z,5.53
2017-08-24T12:43:18.721Z,5.03
2017-08-24T12:45:45.338Z,5.37
2017-08-24T12:48:11.960Z,4.40
2017-08-24T12:50:38.623Z,5.80
2017-08-24T12:53:05.235Z,4.53
2017-08-24T12:55:31.849Z,6.20
2017-08-24T12:57:58.499Z,6.73
2017-08-24T13:00:25.123Z,7.40
2017-08-24T13:02:51.766Z,6.70
2017-08-24T13:05:18.392Z,6.47
2017-08-24T13:07:45.012Z,5.43
2017-08-24T13:10:11.649Z,6.70
2017-08-24T13:12:38.254Z,6.40
2017-08-24T13:15:04.917Z,6.00
2017-08-24T13:17:31.526Z,5.90
2017-08-24T13:19:58.156Z,4.90
2017-08-24T13:22:24.802Z,5.33
2017-08-24T13:24:51.466Z,5.70
2017-08-24T13:27:18.106Z,5.70
2017-08-24T13:29:44.706Z,5.87
2017-08-24T13:32:11.342Z,6.20
2017-08-24T13:34:37.968Z,6.30
2017-08-24T13:37:04.598Z,5.60
2017-08-24T13:39:31.242Z,4.47
2017-08-24T13:41:57.859Z,5.33
2017-08-24T13:44:24.502Z,4.80
2017-08-24T13:46:51.127Z,5.70
2017-08-24T13:49:17.765Z,5.90
2017-08-24T13:51:44.396Z,4.83
2017-08-24T13:54:11.032Z,5.07
2017-08-24T13:56:37.661Z,4.30
2017-08-24T13:59:04.286Z,4.43
2017-08-24T14:01:30.894Z,4.30
2017-08-24T14:03:57.523Z,5.47
2017-08-24T14:06:24.135Z,4.67
2017-08-24T14:08:50.782Z,4.60
2017-08-24T14:11:17.399Z,5.23
2017-08-24T14:13:44.025Z,4.10
2017-08-24T14:16:10.680Z,4.30
2017-08-24T14:18:37.294Z,4.07
2017-08-24T14:21:03.935Z,4.50
2017-08-24T14:23:30.550Z,4.10
2017-08-24T14:25:57.175Z,5.20
2017-08-24T14:28:23.816Z,3.90
2017-08-24T14:30:50.434Z,4.20
2017-08-24T14:33:17.050Z,4.57
2017-08-24T14:35:43.687Z,4.30
2017-08-24T14:38:10.319Z,4.30
2017-08-24T14:40:36.960Z,4.07
2017-08-24T14:43:03.595Z,3.93
2017-08-24T14:45:30.222Z,5.30
2017-08-24T14:47:56.851Z,3.77
2017-08-24T14:50:23.498Z,4.97
2017-08-24T14:52:50.106Z,3.50
2017-08-24T14:55:16.760Z,3.73
2017-08-24T14:57:43.397Z,3.70
2017-08-24T15:00:09.995Z,4.70
2017-08-24T15:02:36.636Z,4.30
2017-08-24T15:05:03.259Z,4.47
2017-08-24T15:07:29.854Z,5.37
2017-08-24T15:09:56.512Z,4.57
2017-08-24T15:12:23.145Z,5.13
2017-08-24T15:14:49.779Z,5.60
2017-08-24T15:17:16.374Z,5.13
2017-08-24T15:19:43.021Z,4.70
2017-08-24T15:22:09.651Z,5.43
2017-08-24T15:24:36.278Z,4.97
2017-08-24T15:27:02.927Z,4.00
2017-08-24T15:29:29.602Z,4.57
2017-08-24T15:31:56.251Z,3.90
2017-08-24T15:34:22.894Z,4.40
2017-08-24T15:36:49.520Z,5.53
2017-08-24T15:39:16.186Z,5.20
2017-08-24T15:41:42.798Z,4.33
2017-08-24T15:44:09.417Z,4.47
2017-08-24T15:46:36.059Z,4.47
2017-08-24T15:49:02.666Z,4.37
2017-08-24T15:51:29.312Z,4.63
2017-08-24T15:53:55.942Z,4.13
2017-08-24T15:56:22.591Z,4.43
2017-08-24T15:58:49.247Z,4.10
2017-08-24T16:01:15.874Z,5.10
2017-08-24T16:03:42.540Z,4.50
2017-08-24T16:06:09.167Z,5.07
2017-08-24T16:08:35.806Z,4.87
2017-08-24T16:11:02.435Z,4.60
2017-08-24T16:13:29.066Z,4.57
2017-08-24T16:15:55.727Z,5.00
2017-08-24T16:18:22.345Z,5.10
2017-08-24T16:20:50.598Z,4.57
2017-08-24T16:23:17.223Z,5.20
2017-08-24T16:25:43.847Z,3.90
2017-08-24T16:28:10.460Z,4.10
2017-08-24T16:30:37.076Z,4.00
2017-08-24T16:33:03.722Z,4.17
2017-08-24T16:35:30.335Z,5.00
2017-08-24T16:37:56.955Z,4.70
2017-08-24T16:40:23.583Z,3.77
2017-08-24T16:42:50.206Z,3.43
2017-08-24T16:45:16.853Z,4.40
2017-08-24T16:47:43.490Z,4.30
2017-08-24T16:50:10.109Z,3.57
2017-08-24T16:52:36.755Z,3.57
2017-08-24T16:55:03.523Z,3.40
2017-08-24T16:57:30.171Z,3.20
2017-08-24T16:59:56.799Z,3.70
2017-08-24T17:02:23.403Z,3.33
2017-08-24T17:04:50.052Z,3.00
2017-08-24T17:07:16.687Z,5.03
2017-08-24T17:09:43.321Z,3.73
2017-08-24T17:12:10.017Z,5.40
2017-08-24T17:14:36.689Z,4.27
2017-08-24T17:17:03.257Z,4.60
2017-08-24T17:19:29.871Z,4.83
2017-08-24T17:21:56.525Z,3.70
2017-08-24T17:24:23.152Z,4.90
2017-08-24T17:26:49.785Z,4.77
2017-08-24T17:29:16.410Z,4.10
2017-08-24T17:31:43.045Z,4.30
2017-08-24T17:34:09.674Z,3.50
2017-08-24T17:36:36.314Z,3.70
2017-08-24T17:39:02.987Z,2.97
2017-08-24T17:41:29.616Z,4.10
2017-08-24T17:43:56.234Z,4.33
2017-08-24T17:46:22.859Z,3.80
2017-08-24T17:48:49.466Z,3.80
2017-08-24T17:51:16.127Z,3.20
2017-08-24T17:53:42.732Z,3.70
2017-08-24T17:56:09.357Z,3.20
2017-08-24T17:58:36.012Z,3.33
2017-08-24T18:01:03.530Z,3.40
2017-08-24T18:03:30.154Z,3.00
2017-08-24T18:05:56.763Z,4.60
2017-08-24T18:08:23.389Z,4.77
2017-08-24T18:10:49.996Z,3.70
2017-08-24T18:13:16.619Z,3.90
2017-08-24T18:15:43.266Z,3.90
2017-08-24T18:18:09.895Z,4.67
2017-08-24T18:20:36.526Z,4.30
2017-08-24T18:23:03.130Z,4.27
2017-08-24T18:25:29.850Z,4.63
2017-08-24T18:27:56.500Z,4.10
2017-08-24T18:30:23.112Z,4.77
2017-08-24T18:32:49.730Z,4.73
2017-08-24T18:35:16.364Z,4.50
2017-08-24T18:37:42.987Z,4.57
2017-08-24T18:40:09.619Z,4.07
2017-08-24T18:42:36.242Z,4.67
2017-08-24T18:45:02.889Z,4.63
2017-08-24T18:47:29.495Z,4.43
2017-08-24T18:49:56.164Z,4.63
2017-08-24T18:52:22.786Z,5.43
2017-08-24T18:54:49.427Z,4.63
2017-08-24T18:57:16.095Z,4.97
2017-08-24T18:59:42.704Z,4.80
2017-08-24T19:02:09.330Z,5.00
2017-08-24T19:04:35.951Z,4.83
2017-08-24T19:07:02.594Z,4.97
2017-08-24T19:09:29.242Z,4.57
2017-08-24T19:11:55.854Z,5.10
2017-08-24T19:14:22.492Z,6.03
2017-08-24T19:16:49.108Z,5.63
2017-08-24T19:19:15.716Z,4.63
2017-08-24T19:21:42.470Z,5.50
2017-08-24T19:24:09.095Z,5.60
2017-08-24T19:26:35.719Z,5.87
2017-08-24T19:29:02.373Z,4.73
2017-08-24T19:31:29.023Z,4.40
2017-08-24T19:33:55.660Z,3.37
2017-08-24T19:36:22.308Z,3.60
2017-08-24T19:38:48.944Z,2.57
2017-08-24T19:41:15.556Z,3.47
2017-08-24T19:43:42.226Z,3.07
2017-08-24T19:46:08.858Z,3.60
2017-08-24T19:48:35.514Z,3.63
2017-08-24T19:51:02.146Z,3.97
2017-08-24T19:53:28.819Z,3.90
2017-08-24T19:55:55.479Z,3.90
2017-08-24T19:58:22.102Z,3.80
2017-08-24T20:00:48.740Z,5.23
2017-08-24T20:03:15.360Z,3.93
2017-08-24T20:05:42.024Z,3.47
2017-08-24T20:08:08.638Z,3.47
2017-08-24T20:10:35.292Z,4.90
2017-08-24T20:13:02.752Z,3.50
2017-08-24T20:15:29.380Z,3.60
2017-08-24T20:17:56.017Z,4.10
2017-08-24T20:20:22.628Z,3.57
2017-08-24T20:22:49.292Z,3.67
2017-08-24T20:25:15.934Z,4.10
2017-08-24T20:27:42.566Z,3.37
2017-08-24T20:30:09.210Z,2.70
2017-08-24T20:32:35.863Z,2.83
2017-08-24T20:35:02.473Z,4.10
2017-08-24T20:37:29.136Z,3.50
2017-08-24T20:39:55.759Z,3.90
2017-08-24T20:42:22.376Z,3.17
2017-08-24T20:44:49.044Z,3.83
2017-08-24T20:47:15.675Z,3.60
2017-08-24T20:49:42.378Z,3.67
2017-08-24T20:52:09.028Z,2.93
2017-08-24T20:54:35.658Z,4.70
2017-08-24T20:57:02.283Z,3.43
2017-08-24T20:59:28.909Z,3.40
2017-08-24T21:01:55.608Z,3.13
2017-08-24T21:04:22.277Z,3.60
2017-08-24T21:06:48.888Z,5.10
2017-08-24T21:09:15.507Z,3.33
2017-08-24T21:11:42.132Z,3.13
2017-08-24T21:14:08.749Z,3.00
2017-08-24T21:16:35.380Z,3.33
2017-08-24T21:19:02.010Z,3.20
2017-08-24T21:21:28.666Z,4.00
2017-08-24T21:23:55.279Z,3.27
2017-08-24T21:26:21.912Z,3.03
2017-08-24T21:28:48.535Z,3.20
2017-08-24T21:31:15.154Z,3.50
2017-08-24T21:33:41.773Z,3.00
2017-08-24T21:36:08.396Z,3.93
2017-08-24T21:38:35.043Z,2.97
2017-08-24T21:41:01.671Z,3.37
2017-08-24T21:43:28.316Z,3.73
2017-08-24T21:45:54.916Z,5.00
2017-08-24T21:48:21.559Z,3.20
2017-08-24T21:50:48.203Z,3.10
2017-08-24T21:53:14.826Z,3.93
2017-08-24T21:55:41.454Z,3.67
2017-08-24T21:58:08.088Z,2.80
2017-08-24T22:00:34.739Z,3.93
2017-08-24T22:03:01.364Z,3.37
2017-08-24T22:05:28.003Z,2.97
2017-08-24T22:07:54.625Z,3.03
2017-08-24T22:10:21.261Z,2.83
2017-08-24T22:12:47.863Z,3.23
2017-08-24T22:15:14.522Z,2.80
2017-08-24T22:17:41.131Z,2.80
2017-08-24T22:20:07.731Z,3.00
2017-08-24T22:22:34.383Z,3.43
2017-08-24T22:25:00.990Z,3.40
2017-08-24T22:27:27.620Z,4.23
2017-08-24T22:29:54.268Z,3.60
2017-08-24T22:32:20.875Z,3.80
2017-08-24T22:34:47.492Z,3.20
2017-08-24T22:37:14.126Z,3.53
2017-08-24T22:39:40.782Z,3.53
2017-08-24T22:42:07.399Z,3.73
2017-08-24T22:44:34.048Z,3.77
2017-08-24T22:47:00.667Z,3.00
2017-08-24T22:49:27.328Z,3.67
2017-08-24T22:51:53.950Z,3.50
2017-08-24T22:54:26.387Z,3.13
2017-08-24T22:56:58.842Z,3.13
2017-08-24T22:59:31.306Z,3.90
2017-08-24T23:02:03.678Z,3.10
2017-08-24T23:04:30.317Z,2.63
2017-08-24T23:06:56.917Z,3.30
2017-08-24T23:09:23.556Z,2.57
2017-08-24T23:11:50.179Z,2.90
2017-08-24T23:14:16.859Z,3.37
2017-08-24T23:16:43.484Z,3.30
2017-08-24T23:19:10.089Z,3.10
2017-08-24T23:21:36.710Z,2.83
2017-08-24T23:24:03.369Z,3.33
2017-08-24T23:26:29.988Z,3.10
2017-08-24T23:28:56.626Z,4.07
2017-08-24T23:31:23.239Z,2.93
2017-08-24T23:33:49.851Z,3.50
2017-08-24T23:36:16.490Z,4.60
2017-08-24T23:38:43.115Z,3.57
2017-08-24T23:41:09.736Z,2.30
2017-08-24T23:43:36.351Z,3.00
2017-08-24T23:46:02.980Z,4.03
2017-08-24T23:48:29.598Z,3.50
2017-08-24T23:50:56.219Z,3.50
2017-08-24T23:53:22.837Z,3.00
2017-08-24T23:55:49.438Z,3.30
2017-08-24T23:58:16.092Z,3.53
